createdAt,value
2019-02-21T00:01:36.297Z,101668.19
2019-02-21T00:04:03.892Z,101665.48
2019-02-21T00:06:31.231Z,101664.08
2019-02-21T00:08:58.399Z,101666.51
2019-02-21T00:11:25.581Z,101675.92
2019-02-21T00:13:52.853Z,101678.27
2019-02-21T00:16:20.049Z,101675.61
2019-02-21T00:18:47.215Z,101670.44
2019-02-21T00:21:14.526Z,101667.93
2019-02-21T00:23:41.584Z,101679.47
2019-02-21T00:26:08.860Z,101677.89
2019-02-21T00:28:36.064Z,101684.30
2019-02-21T00:31:03.262Z,101676.48
2019-02-21T00:33:30.536Z,101686.25
2019-02-21T00:35:57.654Z,101685.42
2019-02-21T00:38:24.907Z,101682.45
2019-02-21T00:40:52.291Z,101676.41
2019-02-21T00:43:19.603Z,101681.16
2019-02-21T00:45:46.756Z,101676.53
2019-02-21T00:48:13.838Z,101683.48
2019-02-21T00:50:40.976Z,101685.38
2019-02-21T00:53:08.127Z,101692.69
2019-02-21T00:55:35.282Z,101684.97
2019-02-21T00:58:02.536Z,101684.77
2019-02-21T01:00:29.801Z,101677.10
2019-02-21T01:02:56.967Z,101678.34
2019-02-21T01:05:24.194Z,101678.31
2019-02-21T01:07:51.352Z,101681.91
2019-02-21T01:10:18.810Z,101680.60
2019-02-21T01:12:46.130Z,101676.44
2019-02-21T01:15:13.420Z,101683.09
2019-02-21T01:17:40.618Z,101681.65
2019-02-21T01:20:07.921Z,101686.96
2019-02-21T01:22:35.381Z,101691.30
2019-02-21T01:25:03.054Z,101691.77
2019-02-21T01:27:30.621Z,101692.31
2019-02-21T01:29:57.932Z,101693.98
2019-02-21T01:32:25.091Z,101690.30
2019-02-21T01:34:52.381Z,101696.70
2019-02-21T01:37:20.039Z,101691.48
2019-02-21T01:39:47.239Z,101694.86
2019-02-21T01:42:14.426Z,101691.81
2019-02-21T01:44:41.677Z,101689.45
2019-02-21T01:47:08.740Z,101688.44
2019-02-21T01:49:36.283Z,101695.45
2019-02-21T01:52:03.470Z,101700.11
2019-02-21T01:54:30.735Z,101698.57
2019-02-21T01:56:57.934Z,101702.34
2019-02-21T01:59:25.481Z,101693.40
2019-02-21T02:01:52.715Z,101696.50
2019-02-21T02:04:19.869Z,101700.88
2019-02-21T02:06:47.419Z,101697.44
2019-02-21T02:09:14.583Z,101699.77
2019-02-21T02:11:41.898Z,101697.80
2019-02-21T02:14:09.145Z,101699.24
2019-02-21T02:16:36.365Z,101704.05
2019-02-21T02:19:03.603Z,101702.94
2019-02-21T02:21:30.746Z,101704.34
2019-02-21T02:23:57.898Z,101698.84
2019-02-21T02:26:25.261Z,101699.98
2019-02-21T02:28:52.420Z,101700.58
2019-02-21T02:31:23.427Z,101704.71
2019-02-21T02:33:48.876Z,101711.48
2019-02-21T02:36:16.346Z,101696.28
2019-02-21T02:38:43.519Z,101708.70
2019-02-21T02:41:10.958Z,101717.47
2019-02-21T02:43:38.214Z,101716.38
2019-02-21T02:46:05.364Z,101715.78
2019-02-21T02:48:32.632Z,101716.96
2019-02-21T02:50:59.698Z,101716.65
2019-02-21T02:53:26.845Z,101708.64
2019-02-21T02:55:54.065Z,101708.31
2019-02-21T02:58:21.297Z,101706.51
2019-02-21T03:00:49.181Z,101708.18
2019-02-21T03:03:16.448Z,101705.18
2019-02-21T03:05:43.580Z,101711.73
2019-02-21T03:08:10.820Z,101722.25
2019-02-21T03:10:37.953Z,101721.01
2019-02-21T03:13:05.231Z,101722.34
2019-02-21T03:15:32.296Z,101721.78
2019-02-21T03:17:59.374Z,101728.58
2019-02-21T03:20:26.529Z,101727.11
2019-02-21T03:22:53.724Z,101725.23
2019-02-21T03:25:21.944Z,101724.68
2019-02-21T03:27:49.172Z,101728.38
2019-02-21T03:30:16.369Z,101727.47
2019-02-21T03:32:44.028Z,101731.39
2019-02-21T03:35:11.266Z,101731.78
2019-02-21T03:37:38.493Z,101733.91
2019-02-21T03:40:06.537Z,101731.57
2019-02-21T03:42:33.740Z,101728.64
2019-02-21T03:45:00.940Z,101729.39
2019-02-21T03:47:28.178Z,101733.79
2019-02-21T03:49:55.352Z,101728.13
2019-02-21T03:52:22.529Z,101729.95
2019-02-21T03:54:49.735Z,101735.17
2019-02-21T03:57:17.112Z,101733.35
2019-02-21T03:59:44.305Z,101735.49
2019-02-21T04:02:11.503Z,101736.53
2019-02-21T04:04:39.678Z,101740.36
2019-02-21T04:07:06.980Z,101735.13
2019-02-21T04:09:34.215Z,101745.55
2019-02-21T04:12:01.499Z,101747.18
2019-02-21T04:14:29.808Z,101747.61
2019-02-21T04:16:57.390Z,101741.80
2019-02-21T04:19:24.652Z,101730.28
2019-02-21T04:21:51.884Z,101725.62
2019-02-21T04:24:19.202Z,101725.98
2019-02-21T04:26:46.384Z,101736.76
2019-02-21T04:29:13.550Z,101737.53
2019-02-21T04:31:40.768Z,101725.88
2019-02-21T04:34:08.289Z,101720.20
2019-02-21T04:36:35.435Z,101720.00
2019-02-21T04:39:04.087Z,101719.06
2019-02-21T04:41:31.451Z,101726.48
2019-02-21T04:43:58.629Z,101726.91
2019-02-21T04:46:25.886Z,101729.13
2019-02-21T04:48:54.948Z,101726.00
2019-02-21T04:51:22.195Z,101724.38
2019-02-21T04:53:49.487Z,101737.20
2019-02-21T04:56:16.664Z,101729.20
2019-02-21T04:58:43.913Z,101731.91
2019-02-21T05:01:11.099Z,101724.36
2019-02-21T05:03:38.381Z,101725.34
2019-02-21T05:06:05.530Z,101726.44
2019-02-21T05:08:32.840Z,101723.63
2019-02-21T05:11:00.308Z,101719.69
2019-02-21T05:13:27.600Z,101727.17
2019-02-21T05:15:54.863Z,101735.77
2019-02-21T05:18:22.037Z,101735.60
2019-02-21T05:20:49.088Z,101737.88
2019-02-21T05:23:16.412Z,101726.33
2019-02-21T05:25:43.542Z,101743.45
2019-02-21T05:28:30.651Z,101741.21
2019-02-21T05:31:29.268Z,101736.44
2019-02-21T05:34:01.497Z,101742.62
2019-02-21T05:36:54.546Z,101732.95
2019-02-21T05:39:37.032Z,101743.98
2019-02-21T05:42:12.957Z,101738.65
2019-02-21T05:44:45.240Z,101740.24
2019-02-21T05:47:30.680Z,101744.92
2019-02-21T05:50:23.399Z,101743.89
2019-02-21T05:53:11.186Z,101746.55
2019-02-21T05:55:47.589Z,101740.48
2019-02-21T05:58:38.777Z,101741.81
2019-02-21T06:01:12.512Z,101741.88
2019-02-21T06:03:56.830Z,101738.14
2019-02-21T06:06:43.656Z,101744.44
2019-02-21T06:09:30.409Z,101746.17
2019-02-21T06:12:12.501Z,101750.07
2019-02-21T06:15:18.342Z,101747.16
2019-02-21T06:18:05.139Z,101751.87
2019-02-21T06:20:50.208Z,101758.53
2019-02-21T06:23:39.311Z,101761.47
2019-02-21T06:26:20.126Z,101749.22
2019-02-21T06:28:54.584Z,101753.59
2019-02-21T06:31:22.116Z,101756.52
2019-02-21T06:33:49.695Z,101753.70
2019-02-21T06:36:17.005Z,101755.47
2019-02-21T06:38:44.477Z,101760.23
2019-02-21T06:41:11.991Z,101762.49
2019-02-21T06:43:39.241Z,101766.42
2019-02-21T06:46:06.809Z,101771.53
2019-02-21T06:48:34.946Z,101774.78
2019-02-21T06:51:02.127Z,101767.16
2019-02-21T06:53:29.389Z,101767.48
2019-02-21T06:55:56.572Z,101773.53
2019-02-21T06:58:24.144Z,101775.23
2019-02-21T07:00:51.440Z,101764.69
2019-02-21T07:03:19.189Z,101773.89
2019-02-21T07:05:46.366Z,101771.78
2019-02-21T07:08:13.581Z,101767.50
2019-02-21T07:10:40.645Z,101770.81
2019-02-21T07:13:07.956Z,101769.45
2019-02-21T07:15:35.109Z,101766.81
2019-02-21T07:18:02.201Z,101772.75
2019-02-21T07:20:30.721Z,101777.33
2019-02-21T07:22:57.934Z,101770.61
2019-02-21T07:25:44.852Z,101772.64
2019-02-21T07:28:15.586Z,101777.19
2019-02-21T07:30:42.934Z,101786.05
2019-02-21T07:33:10.296Z,101787.91
2019-02-21T07:35:37.389Z,101785.27
2019-02-21T07:38:04.563Z,101782.87
2019-02-21T07:40:31.776Z,101781.12
2019-02-21T07:42:58.970Z,101777.52
2019-02-21T07:45:26.280Z,101776.03
2019-02-21T07:47:53.444Z,101781.37
2019-02-21T07:50:23.065Z,101785.63
2019-02-21T07:52:50.160Z,101787.48
2019-02-21T07:55:17.338Z,101790.36
2019-02-21T07:57:44.556Z,101810.77
2019-02-21T08:00:12.338Z,101820.14
2019-02-21T08:02:39.484Z,101827.59
2019-02-21T08:05:06.846Z,101838.69
2019-02-21T08:07:33.953Z,101833.92
2019-02-21T08:10:01.163Z,101839.34
2019-02-21T08:12:28.360Z,101839.31
2019-02-21T08:14:56.366Z,101842.72
2019-02-21T08:17:23.598Z,101841.67
2019-02-21T08:19:50.792Z,101850.86
2019-02-21T08:22:17.972Z,101844.23
2019-02-21T08:24:46.068Z,101844.52
2019-02-21T08:27:13.372Z,101846.56
2019-02-21T08:29:40.537Z,101856.80
2019-02-21T08:32:08.370Z,101845.77
2019-02-21T08:34:39.752Z,101850.35
2019-02-21T08:37:08.837Z,101853.78
2019-02-21T08:39:36.138Z,101850.52
2019-02-21T08:42:03.372Z,101854.09
2019-02-21T08:44:30.578Z,101852.70
2019-02-21T08:46:57.816Z,101847.34
2019-02-21T08:49:24.982Z,101848.78
2019-02-21T08:51:54.854Z,101848.16
2019-02-21T08:54:21.334Z,101847.16
2019-02-21T08:56:48.584Z,101852.53
2019-02-21T08:59:15.744Z,101845.83
2019-02-21T09:01:42.962Z,101847.81
2019-02-21T09:04:24.115Z,101856.72
2019-02-21T09:06:39.312Z,101856.48
2019-02-21T09:09:07.136Z,101861.05
2019-02-21T09:11:34.344Z,101860.80
2019-02-21T09:14:01.484Z,101865.25
2019-02-21T09:16:28.914Z,101866.71
2019-02-21T09:18:56.069Z,101853.20
2019-02-21T09:21:23.248Z,101860.27
2019-02-21T09:23:50.438Z,101860.58
2019-02-21T09:26:17.552Z,101858.09
2019-02-21T09:28:44.731Z,101855.58
2019-02-21T09:31:11.902Z,101860.11
2019-02-21T09:33:39.432Z,101853.97
2019-02-21T09:36:07.191Z,101849.70
2019-02-21T09:38:34.965Z,101859.70
2019-02-21T09:41:02.790Z,101872.37
2019-02-21T09:43:29.980Z,101871.45
2019-02-21T09:45:57.176Z,101875.34
2019-02-21T09:48:24.362Z,101875.38
2019-02-21T09:50:51.448Z,101864.60
2019-02-21T09:53:18.655Z,101864.72
2019-02-21T09:55:45.809Z,101867.16
2019-02-21T09:58:13.150Z,101866.42
2019-02-21T10:00:40.325Z,101864.16
2019-02-21T10:03:07.591Z,101864.23
2019-02-21T10:05:34.791Z,101865.88
2019-02-21T10:08:01.974Z,101870.13
2019-02-21T10:10:29.139Z,101866.47
2019-02-21T10:12:56.573Z,101864.18
2019-02-21T10:15:23.823Z,101869.02
2019-02-21T10:17:51.082Z,101874.96
2019-02-21T10:20:18.630Z,101867.58
2019-02-21T10:22:45.863Z,101871.85
2019-02-21T10:25:23.126Z,101874.34
2019-02-21T10:27:50.261Z,101876.22
2019-02-21T10:30:18.729Z,101873.20
2019-02-21T10:32:45.879Z,101880.58
2019-02-21T10:35:13.237Z,101872.88
2019-02-21T10:37:40.504Z,101872.45
2019-02-21T10:40:09.133Z,101879.66
2019-02-21T10:42:36.581Z,101875.98
2019-02-21T10:45:05.584Z,101870.47
2019-02-21T10:47:32.865Z,101877.61
2019-02-21T10:50:00.332Z,101878.98
2019-02-21T10:52:27.756Z,101881.16
2019-02-21T10:54:54.851Z,101883.11
2019-02-21T10:57:22.056Z,101886.59
2019-02-21T10:59:49.571Z,101888.74
2019-02-21T11:02:17.227Z,101879.03
2019-02-21T11:04:54.376Z,101880.26
2019-02-21T11:07:13.947Z,101873.28
2019-02-21T11:09:41.235Z,101877.97
2019-02-21T11:12:08.867Z,101875.06
2019-02-21T11:14:46.919Z,101883.20
2019-02-21T11:17:05.115Z,101876.16
2019-02-21T11:19:32.456Z,101875.80
2019-02-21T11:21:59.601Z,101875.03
2019-02-21T11:24:26.829Z,101875.69
2019-02-21T11:26:54.041Z,101873.66
2019-02-21T11:29:21.225Z,101867.50
2019-02-21T11:31:48.439Z,101863.23
2019-02-21T11:34:15.652Z,101859.71
2019-02-21T11:36:42.815Z,101860.06
2019-02-21T11:39:10.159Z,101858.73
2019-02-21T11:41:37.252Z,101863.53
2019-02-21T11:44:04.484Z,101851.21
2019-02-21T11:46:31.698Z,101855.31
2019-02-21T11:48:58.898Z,101844.09
2019-02-21T11:51:26.080Z,101840.48
2019-02-21T11:53:53.730Z,101847.31
2019-02-21T11:56:20.912Z,101844.25
2019-02-21T11:58:48.100Z,101839.64
2019-02-21T12:01:15.294Z,101832.65
2019-02-21T12:03:42.530Z,101836.17
2019-02-21T12:06:09.720Z,101833.61
2019-02-21T12:08:36.932Z,101827.85
2019-02-21T12:11:04.144Z,101820.93
2019-02-21T12:13:31.358Z,101827.58
2019-02-21T12:15:59.157Z,101825.66
2019-02-21T12:18:26.494Z,101824.34
2019-02-21T12:20:53.610Z,101818.14
2019-02-21T12:23:20.814Z,101806.91
2019-02-21T12:25:48.373Z,101799.16
2019-02-21T12:28:15.620Z,101799.55
2019-02-21T12:30:42.822Z,101786.99
2019-02-21T12:33:10.030Z,101776.59
2019-02-21T12:35:37.243Z,101784.08
2019-02-21T12:38:04.510Z,101779.08
2019-02-21T12:40:31.799Z,101779.32
2019-02-21T12:42:59.419Z,101783.31
2019-02-21T12:45:26.557Z,101785.16
2019-02-21T12:47:54.300Z,101787.20
2019-02-21T12:50:22.287Z,101795.33
2019-02-21T12:52:49.475Z,101790.19
2019-02-21T12:55:27.350Z,101780.13
2019-02-21T12:57:45.955Z,101778.30
2019-02-21T13:00:15.977Z,101790.91
2019-02-21T13:02:44.085Z,101793.91
2019-02-21T13:05:11.760Z,101795.84
2019-02-21T13:07:39.460Z,101805.39
2019-02-21T13:10:09.585Z,101794.78
2019-02-21T13:12:36.868Z,101791.72
2019-02-21T13:15:04.878Z,101796.56
2019-02-21T13:17:32.682Z,101799.54
2019-02-21T13:19:59.854Z,101803.88
2019-02-21T13:22:27.149Z,101812.81
2019-02-21T13:24:54.727Z,101802.84
2019-02-21T13:27:21.955Z,101796.01
2019-02-21T13:29:49.548Z,101791.92
2019-02-21T13:32:16.837Z,101788.16
2019-02-21T13:34:43.960Z,101792.48
2019-02-21T13:37:11.149Z,101785.73
2019-02-21T13:39:38.382Z,101783.09
2019-02-21T13:42:05.675Z,101773.06
2019-02-21T13:44:34.010Z,101781.30
2019-02-21T13:47:01.124Z,101780.20
2019-02-21T13:49:28.407Z,101772.55
2019-02-21T13:51:55.553Z,101774.41
2019-02-21T13:54:22.729Z,101780.92
2019-02-21T13:56:49.999Z,101773.83
2019-02-21T13:59:17.184Z,101773.44
2019-02-21T14:01:44.588Z,101766.37
2019-02-21T14:04:11.770Z,101755.98
2019-02-21T14:06:38.940Z,101761.12
2019-02-21T14:09:06.751Z,101761.69
2019-02-21T14:11:33.958Z,101752.45
2019-02-21T14:14:01.131Z,101755.19
2019-02-21T14:16:28.356Z,101755.34
2019-02-21T14:18:56.119Z,101753.55
2019-02-21T14:21:23.353Z,101748.34
2019-02-21T14:23:50.524Z,101748.33
2019-02-21T14:26:17.761Z,101740.17
2019-02-21T14:28:44.886Z,101748.16
2019-02-21T14:31:12.252Z,101750.33
2019-02-21T14:33:39.353Z,101747.05
2019-02-21T14:36:15.108Z,101756.16
2019-02-21T14:38:37.905Z,101754.94
2019-02-21T14:41:05.367Z,101754.79
2019-02-21T14:43:32.606Z,101747.17
2019-02-21T14:46:02.504Z,101748.31
2019-02-21T14:48:29.885Z,101743.44
2019-02-21T14:51:09.346Z,101752.78
2019-02-21T14:53:36.561Z,101748.30
2019-02-21T14:56:44.889Z,101739.92
2019-02-21T15:02:32.711Z,101743.13
2019-02-21T15:10:41.262Z,101746.11
2019-02-21T15:13:08.495Z,101749.27
2019-02-21T15:15:36.012Z,101745.63
2019-02-21T15:18:43.943Z,101739.06
2019-02-21T15:21:11.139Z,101744.95
2019-02-21T15:26:37.677Z,101750.98
2019-02-21T15:29:05.133Z,101754.12
2019-02-21T15:35:12.339Z,101755.91
2019-02-21T15:38:00.542Z,101755.50
2019-02-21T15:41:29.032Z,101756.84
2019-02-21T15:43:56.586Z,101760.77
2019-02-21T15:46:23.806Z,101757.51
2019-02-21T15:48:51.143Z,101754.10
2019-02-21T15:51:18.824Z,101755.70
2019-02-21T15:53:46.451Z,101749.45
2019-02-21T15:56:13.671Z,101755.85
2019-02-21T15:58:40.855Z,101761.14
2019-02-21T16:01:08.058Z,101763.05
2019-02-21T16:03:35.696Z,101759.30
2019-02-21T16:06:02.810Z,101760.21
2019-02-21T16:08:29.997Z,101757.42
2019-02-21T16:10:57.264Z,101757.91
2019-02-21T16:13:24.913Z,101768.60
2019-02-21T16:15:52.444Z,101766.51
2019-02-21T16:18:19.674Z,101762.48
2019-02-21T16:20:47.194Z,101770.70
2019-02-21T16:23:14.316Z,101765.72
2019-02-21T16:25:41.617Z,101773.83
2019-02-21T16:28:09.137Z,101771.61
2019-02-21T16:30:36.315Z,101772.45
2019-02-21T16:33:03.517Z,101773.79
2019-02-21T16:35:30.576Z,101777.95
2019-02-21T16:37:57.747Z,101784.73
2019-02-21T16:40:25.646Z,101782.47
2019-02-21T16:42:52.948Z,101786.73
2019-02-21T16:45:20.132Z,101787.02
2019-02-21T16:47:47.338Z,101788.42
2019-02-21T16:50:14.521Z,101789.83
2019-02-21T16:52:41.851Z,101793.42
2019-02-21T16:55:11.470Z,101786.82
2019-02-21T16:57:38.675Z,101788.31
2019-02-21T17:00:07.284Z,101788.69
2019-02-21T17:02:34.471Z,101794.38
2019-02-21T17:05:01.568Z,101794.62
2019-02-21T17:07:28.875Z,101801.42
2019-02-21T17:09:56.088Z,101800.39
2019-02-21T17:12:23.639Z,101796.52
2019-02-21T17:14:51.216Z,101801.88
2019-02-21T17:17:19.001Z,101803.77
2019-02-21T17:19:46.208Z,101812.64
2019-02-21T17:22:13.413Z,101823.65
2019-02-21T17:24:40.588Z,101835.44
2019-02-21T17:27:07.775Z,101828.92
2019-02-21T17:29:35.058Z,101831.56
2019-02-21T17:32:02.289Z,101836.30
2019-02-21T17:34:29.586Z,101840.27
2019-02-21T17:36:56.847Z,101834.32
2019-02-21T17:39:24.067Z,101834.84
2019-02-21T17:41:51.246Z,101841.84
2019-02-21T17:44:18.468Z,101834.66
2019-02-21T17:46:45.553Z,101836.71
2019-02-21T17:49:12.714Z,101836.05
2019-02-21T17:51:40.457Z,101839.70
2019-02-21T17:54:07.679Z,101847.73
2019-02-21T17:56:35.149Z,101842.91
2019-02-21T17:59:02.633Z,101850.08
2019-02-21T18:01:29.966Z,101857.50
2019-02-21T18:03:57.494Z,101851.77
2019-02-21T18:06:24.737Z,101850.83
2019-02-21T18:08:54.893Z,101842.53
2019-02-21T18:11:21.406Z,101844.80
2019-02-21T18:13:48.631Z,101842.99
2019-02-21T18:16:15.858Z,101847.52
2019-02-21T18:18:43.040Z,101849.86
2019-02-21T18:21:10.448Z,101851.30
2019-02-21T18:23:37.669Z,101858.42
2019-02-21T18:26:11.962Z,101849.30
2019-02-21T18:28:39.115Z,101854.02
2019-02-21T18:31:06.401Z,101859.38
2019-02-21T18:33:33.497Z,101859.28
2019-02-21T18:36:00.754Z,101859.26
2019-02-21T18:38:27.975Z,101860.55
2019-02-21T18:40:55.283Z,101857.40
2019-02-21T18:43:23.137Z,101859.77
2019-02-21T18:45:51.051Z,101851.94
2019-02-21T18:48:18.303Z,101855.70
2019-02-21T18:50:45.501Z,101864.93
2019-02-21T18:53:13.089Z,101863.16
2019-02-21T18:55:40.660Z,101861.84
2019-02-21T18:58:08.273Z,101869.18
2019-02-21T19:00:35.491Z,101865.61
2019-02-21T19:03:02.681Z,101864.20
2019-02-21T19:05:35.918Z,101864.50
2019-02-21T19:08:05.264Z,101862.16
2019-02-21T19:10:28.208Z,101856.78
2019-02-21T19:12:55.622Z,101858.39
2019-02-21T19:15:25.075Z,101852.18
2019-02-21T19:17:52.190Z,101852.18
2019-02-21T19:20:19.506Z,101845.78
2019-02-21T19:22:46.674Z,101850.97
2019-02-21T19:25:14.060Z,101853.13
2019-02-21T19:27:41.301Z,101854.81
2019-02-21T19:30:12.408Z,101856.80
2019-02-21T19:32:39.806Z,101865.95
2019-02-21T19:35:07.396Z,101863.40
2019-02-21T19:37:34.598Z,101872.81
2019-02-21T19:40:01.787Z,101873.77
2019-02-21T19:42:29.319Z,101868.56
2019-02-21T19:44:56.608Z,101875.53
2019-02-21T19:47:23.770Z,101875.91
2019-02-21T19:49:51.357Z,101875.45
2019-02-21T19:52:18.443Z,101882.42
2019-02-21T19:54:45.652Z,101877.90
2019-02-21T19:57:12.852Z,101878.02
2019-02-21T19:59:40.082Z,101878.84
2019-02-21T20:02:07.344Z,101876.20
2019-02-21T20:04:34.568Z,101882.42
2019-02-21T20:07:01.786Z,101880.35
2019-02-21T20:09:29.095Z,101885.25
2019-02-21T20:11:56.600Z,101890.59
2019-02-21T20:14:24.830Z,101896.89
2019-02-21T20:16:52.028Z,101895.95
2019-02-21T20:19:19.273Z,101906.98
2019-02-21T20:21:46.451Z,101902.25
2019-02-21T20:24:14.174Z,101903.11
2019-02-21T20:26:41.376Z,101911.39
2019-02-21T20:29:08.610Z,101911.77
2019-02-21T20:31:35.808Z,101918.28
2019-02-21T20:34:03.559Z,101919.52
2019-02-21T20:36:30.811Z,101913.47
2019-02-21T20:38:57.974Z,101914.41
2019-02-21T20:41:25.297Z,101916.75
2019-02-21T20:43:53.616Z,101920.33
2019-02-21T20:46:20.796Z,101923.98
2019-02-21T20:48:48.099Z,101925.78
2019-02-21T20:51:15.362Z,101930.68
2019-02-21T20:53:42.553Z,101936.41
2019-02-21T20:56:10.176Z,101932.08
2019-02-21T20:58:37.399Z,101936.59
2019-02-21T21:01:06.841Z,101934.59
2019-02-21T21:03:34.102Z,101933.54
2019-02-21T21:06:01.468Z,101935.77
2019-02-21T21:08:28.819Z,101939.14
2019-02-21T21:10:56.063Z,101934.41
2019-02-21T21:13:23.392Z,101939.86
2019-02-21T21:15:50.492Z,101946.06
2019-02-21T21:18:17.719Z,101955.85
2019-02-21T21:20:44.793Z,101958.87
2019-02-21T21:23:12.350Z,101956.05
2019-02-21T21:25:39.716Z,101952.77
2019-02-21T21:28:06.887Z,101958.35
2019-02-21T21:30:34.102Z,101963.80
2019-02-21T21:33:01.225Z,101961.70
2019-02-21T21:35:28.767Z,101959.55
2019-02-21T21:37:55.953Z,101957.67
2019-02-21T21:40:23.189Z,101957.59
2019-02-21T21:42:50.730Z,101954.66
2019-02-21T21:45:18.462Z,101967.91
2019-02-21T21:47:45.565Z,101961.87
2019-02-21T21:50:14.243Z,101968.47
2019-02-21T21:52:41.495Z,101973.17
2019-02-21T21:55:08.942Z,101973.25
2019-02-21T21:57:36.534Z,101965.45
2019-02-21T22:00:05.373Z,101969.50
2019-02-21T22:02:32.579Z,101978.42
2019-02-21T22:05:00.316Z,101988.59
2019-02-21T22:07:27.363Z,101991.22
2019-02-21T22:09:54.755Z,101986.78
2019-02-21T22:12:21.935Z,101988.48
2019-02-21T22:14:49.509Z,101996.23
2019-02-21T22:17:16.629Z,101996.05
2019-02-21T22:19:43.809Z,101987.69
2019-02-21T22:22:10.993Z,101984.42
2019-02-21T22:24:38.331Z,101988.84
2019-02-21T22:27:05.603Z,101995.02
2019-02-21T22:29:32.805Z,101997.80
2019-02-21T22:32:00.105Z,101993.92
2019-02-21T22:34:27.317Z,101995.66
2019-02-21T22:36:54.510Z,101993.70
2019-02-21T22:39:21.732Z,101991.52
2019-02-21T22:41:48.892Z,101989.81
2019-02-21T22:44:16.002Z,101985.86
2019-02-21T22:46:43.911Z,101976.06
2019-02-21T22:49:11.086Z,101979.08
2019-02-21T22:51:38.271Z,101979.83
2019-02-21T22:54:05.597Z,101981.94
2019-02-21T22:56:32.776Z,101973.66
2019-02-21T22:59:00.044Z,101969.39
2019-02-21T23:01:30.479Z,101972.45
2019-02-21T23:04:38.163Z,101964.34
2019-02-21T23:07:19.812Z,101965.73
2019-02-21T23:09:46.972Z,101970.75
2019-02-21T23:12:14.276Z,101973.59
2019-02-21T23:14:41.567Z,101978.41
2019-02-21T23:17:08.674Z,101980.45
2019-02-21T23:19:35.885Z,101985.41
2019-02-21T23:22:03.109Z,101987.97
2019-02-21T23:24:30.269Z,101977.44
2019-02-21T23:26:57.450Z,101980.52
2019-02-21T23:29:24.638Z,101982.77
2019-02-21T23:31:51.942Z,101990.19
2019-02-21T23:34:29.902Z,101988.35
2019-02-21T23:36:57.119Z,101990.88
2019-02-21T23:39:24.331Z,101988.94
2019-02-21T23:41:51.399Z,101989.25
2019-02-21T23:44:18.685Z,101993.20
2019-02-21T23:46:47.203Z,101988.27
2019-02-21T23:49:14.529Z,101989.40
2019-02-21T23:51:41.696Z,101989.59
2019-02-21T23:54:08.882Z,101985.64
2019-02-21T23:56:36.114Z,101985.44
2019-02-21T23:59:03.774Z,101980.19
